createdAt,value
2022-12-26T00:00:48.863Z,78.73
2022-12-26T00:03:15.822Z,78.67
2022-12-26T00:05:42.703Z,78.52
2022-12-26T00:08:09.551Z,78.55
2022-12-26T00:10:36.355Z,78.34
2022-12-26T00:13:40.263Z,78.05
2022-12-26T00:15:49.987Z,78.41
2022-12-26T00:18:16.825Z,78.40
2022-12-26T00:20:43.606Z,78.96
2022-12-26T00:23:10.371Z,78.68
2022-12-26T00:25:37.213Z,78.14
2022-12-26T00:28:04.084Z,77.70
2022-12-26T00:30:30.942Z,77.86
2022-12-26T00:32:57.718Z,78.01
2022-12-26T00:35:24.542Z,77.72
2022-12-26T00:37:51.401Z,77.60
2022-12-26T00:40:18.301Z,77.91
2022-12-26T00:42:45.118Z,77.88
2022-12-26T00:45:11.948Z,77.64
2022-12-26T00:47:38.754Z,77.36
2022-12-26T00:50:12.952Z,77.09
2022-12-26T00:52:42.469Z,77.24
2022-12-26T00:55:10.241Z,77.44
2022-12-26T00:57:37.063Z,77.89
2022-12-26T01:00:05.509Z,77.41
2022-12-26T01:02:38.071Z,77.22
2022-12-26T01:05:07.978Z,77.33
2022-12-26T01:08:23.409Z,77.87
2022-12-26T01:10:23.724Z,77.71
2022-12-26T01:12:50.572Z,77.78
2022-12-26T01:15:17.766Z,77.37
2022-12-26T01:17:44.588Z,77.70
2022-12-26T01:20:11.745Z,77.11
2022-12-26T01:22:38.823Z,76.84
2022-12-26T01:25:06.477Z,77.20
2022-12-26T01:27:33.236Z,77.48
2022-12-26T01:30:00.089Z,77.21
2022-12-26T01:32:26.915Z,77.32
2022-12-26T01:34:55.475Z,76.75
2022-12-26T01:37:23.538Z,77.03
2022-12-26T01:39:51.511Z,77.61
2022-12-26T01:42:22.368Z,77.64
2022-12-26T01:45:23.171Z,77.18
2022-12-26T01:47:55.405Z,77.41
2022-12-26T01:50:42.497Z,77.12
2022-12-26T01:53:32.623Z,77.58
2022-12-26T01:56:07.403Z,77.26
2022-12-26T01:58:47.521Z,77.51
2022-12-26T02:01:14.969Z,78.21
2022-12-26T02:04:03.968Z,77.87
2022-12-26T02:06:32.087Z,78.07
2022-12-26T02:08:59.360Z,78.29
2022-12-26T02:11:39.014Z,78.48
2022-12-26T02:14:07.533Z,78.42
2022-12-26T02:16:36.353Z,77.40
2022-12-26T02:19:07.092Z,77.49
2022-12-26T02:22:03.175Z,78.19
2022-12-26T02:25:00.312Z,77.70
2022-12-26T02:28:13.633Z,78.00
2022-12-26T02:31:06.382Z,77.79
2022-12-26T02:34:09.774Z,77.76
2022-12-26T02:37:30.313Z,77.51
2022-12-26T02:40:23.578Z,77.50
2022-12-26T02:43:12.064Z,77.63
2022-12-26T02:46:22.277Z,78.24
2022-12-26T02:50:05.303Z,78.23
2022-12-26T02:53:37.830Z,78.44
2022-12-26T02:56:38.734Z,78.42
2022-12-26T02:59:55.282Z,78.40
2022-12-26T03:03:23.619Z,78.32
2022-12-26T03:06:24.244Z,78.36
2022-12-26T03:09:22.586Z,78.31
2022-12-26T03:12:13.077Z,78.67
2022-12-26T03:14:48.671Z,78.22
2022-12-26T03:17:30.433Z,77.84
2022-12-26T03:20:04.365Z,77.53
2022-12-26T03:22:56.247Z,77.49
2022-12-26T03:26:13.615Z,76.82
2022-12-26T03:28:42.104Z,76.45
2022-12-26T03:31:12.431Z,76.04
2022-12-26T03:34:04.636Z,76.19
2022-12-26T03:37:09.504Z,76.29
2022-12-26T03:40:17.612Z,76.32
2022-12-26T03:43:32.835Z,76.82
2022-12-26T03:46:29.920Z,75.63
2022-12-26T03:49:35.309Z,75.85
2022-12-26T03:52:49.404Z,75.75
2022-12-26T03:55:53.789Z,75.92
2022-12-26T03:58:59.829Z,76.09
2022-12-26T04:01:48.458Z,76.84
2022-12-26T04:04:35.891Z,76.77
2022-12-26T04:07:31.346Z,76.90
2022-12-26T04:10:30.812Z,76.47
2022-12-26T04:13:17.776Z,76.96
2022-12-26T04:16:27.407Z,77.21
2022-12-26T04:19:24.591Z,77.52
2022-12-26T04:22:37.013Z,76.76
2022-12-26T04:25:48.994Z,76.53
2022-12-26T04:28:38.677Z,76.39
2022-12-26T04:31:55.192Z,75.57
2022-12-26T04:35:05.954Z,75.22
2022-12-26T04:37:54.284Z,74.85
2022-12-26T04:40:46.164Z,74.59
2022-12-26T04:43:47.050Z,74.44
2022-12-26T04:46:16.145Z,74.09
2022-12-26T04:49:03.537Z,74.16
2022-12-26T04:51:30.358Z,74.77
2022-12-26T04:53:57.229Z,74.22
2022-12-26T04:56:24.055Z,74.37
2022-12-26T04:58:50.847Z,74.44
2022-12-26T05:01:36.649Z,74.60
2022-12-26T05:04:21.991Z,74.76
2022-12-26T05:07:07.396Z,74.83
2022-12-26T05:09:34.327Z,74.70
2022-12-26T05:12:09.332Z,74.59
2022-12-26T05:14:36.876Z,74.73
2022-12-26T05:17:24.302Z,74.56
2022-12-26T05:20:09.791Z,74.88
2022-12-26T05:23:00.923Z,75.31
2022-12-26T05:25:59.499Z,75.02
2022-12-26T05:28:44.523Z,75.30
2022-12-26T05:31:15.458Z,75.64
2022-12-26T05:34:01.683Z,75.52
2022-12-26T05:36:34.829Z,75.50
2022-12-26T05:39:02.114Z,75.01
2022-12-26T05:41:28.972Z,74.98
2022-12-26T05:43:55.742Z,75.47
2022-12-26T05:46:22.533Z,75.22
2022-12-26T05:48:49.394Z,75.32
2022-12-26T05:51:16.170Z,75.80
2022-12-26T05:53:42.977Z,75.88
2022-12-26T05:56:16.155Z,76.37
2022-12-26T05:58:43.578Z,75.89
2022-12-26T06:01:19.571Z,75.29
2022-12-26T06:03:49.967Z,75.08
2022-12-26T06:06:18.112Z,75.46
2022-12-26T06:08:49.249Z,75.64
2022-12-26T06:11:17.618Z,76.47
2022-12-26T06:13:45.166Z,75.86
2022-12-26T06:16:16.114Z,76.20
2022-12-26T06:18:43.195Z,75.98
2022-12-26T06:21:13.919Z,75.94
2022-12-26T06:23:41.427Z,76.28
2022-12-26T06:26:10.246Z,75.47
2022-12-26T06:28:38.269Z,75.49
2022-12-26T06:31:10.420Z,75.27
2022-12-26T06:33:37.889Z,75.42
2022-12-26T06:36:12.720Z,75.36
2022-12-26T06:38:39.659Z,75.51
2022-12-26T06:41:08.529Z,75.98
2022-12-26T06:43:35.569Z,75.86
2022-12-26T06:46:05.206Z,76.13
2022-12-26T06:48:33.782Z,76.25
2022-12-26T06:51:05.444Z,76.62
2022-12-26T06:53:34.515Z,76.73
2022-12-26T06:56:16.225Z,76.37
2022-12-26T06:58:44.002Z,76.17
2022-12-26T07:01:17.575Z,76.11
2022-12-26T07:03:51.091Z,75.86
2022-12-26T07:06:24.182Z,75.48
2022-12-26T07:08:52.651Z,75.47
2022-12-26T07:11:23.354Z,75.55
2022-12-26T07:13:50.532Z,75.60
2022-12-26T07:16:17.572Z,75.72
2022-12-26T07:18:44.413Z,76.02
2022-12-26T07:21:14.878Z,75.45
2022-12-26T07:23:42.325Z,75.14
2022-12-26T07:26:09.311Z,75.42
2022-12-26T07:28:36.087Z,75.22
2022-12-26T07:31:03.868Z,74.37
2022-12-26T07:33:31.425Z,74.17
2022-12-26T07:36:06.586Z,74.07
2022-12-26T07:38:34.006Z,73.69
2022-12-26T07:41:20.824Z,73.44
2022-12-26T07:43:47.667Z,71.99
2022-12-26T07:46:14.581Z,70.39
2022-12-26T07:48:41.434Z,69.64
2022-12-26T07:51:08.200Z,68.80
2022-12-26T07:53:35.197Z,67.73
2022-12-26T07:56:02.134Z,66.65
2022-12-26T07:58:28.945Z,67.93
2022-12-26T08:00:55.779Z,68.74
2022-12-26T08:03:23.418Z,69.75
2022-12-26T08:05:51.459Z,69.83
2022-12-26T08:08:18.254Z,70.14
2022-12-26T08:10:45.005Z,69.62
2022-12-26T08:13:11.840Z,69.74
2022-12-26T08:15:40.160Z,70.23
2022-12-26T08:18:08.326Z,69.52
2022-12-26T08:20:35.257Z,70.04
2022-12-26T08:23:02.123Z,70.64
2022-12-26T08:25:29.002Z,69.65
2022-12-26T08:27:55.815Z,68.95
2022-12-26T08:30:22.640Z,70.33
2022-12-26T08:32:51.522Z,69.04
2022-12-26T08:35:18.404Z,68.41
2022-12-26T08:37:47.867Z,66.84
2022-12-26T08:40:15.556Z,65.80
2022-12-26T08:43:03.329Z,65.26
2022-12-26T08:45:32.171Z,64.99
2022-12-26T08:47:59.479Z,65.81
2022-12-26T08:50:26.475Z,64.47
2022-12-26T08:52:53.299Z,62.38
2022-12-26T08:55:20.103Z,60.32
2022-12-26T08:57:46.906Z,58.41
2022-12-26T09:00:14.489Z,57.29
2022-12-26T09:02:41.431Z,52.47
2022-12-26T09:05:08.441Z,53.88
2022-12-26T09:07:35.581Z,52.01
2022-12-26T09:10:02.431Z,51.05
2022-12-26T09:12:29.248Z,49.42
2022-12-26T09:14:56.063Z,48.94
2022-12-26T09:17:23.196Z,47.80
2022-12-26T09:19:50.035Z,47.89
2022-12-26T09:22:35.519Z,48.91
2022-12-26T09:25:02.552Z,48.61
2022-12-26T09:27:29.584Z,48.03
2022-12-26T09:29:56.428Z,48.82
2022-12-26T09:32:23.195Z,48.36
2022-12-26T09:34:50.100Z,48.71
2022-12-26T09:37:16.875Z,50.27
2022-12-26T09:39:43.661Z,50.79
2022-12-26T09:42:29.753Z,50.04
2022-12-26T09:45:18.813Z,47.71
2022-12-26T09:48:39.675Z,46.87
2022-12-26T09:51:10.055Z,45.24
2022-12-26T09:53:43.854Z,46.89
2022-12-26T09:57:01.315Z,46.05
2022-12-26T09:59:18.019Z,45.17
2022-12-26T10:01:48.854Z,47.52
2022-12-26T10:04:29.894Z,45.95
2022-12-26T10:07:18.051Z,43.10
2022-12-26T10:10:03.567Z,42.91
2022-12-26T10:12:46.401Z,42.01
2022-12-26T10:16:16.678Z,40.60
2022-12-26T10:19:07.088Z,40.80
2022-12-26T10:21:44.393Z,40.91
2022-12-26T10:24:20.553Z,39.66
2022-12-26T10:26:56.823Z,39.00
2022-12-26T10:29:50.753Z,39.49
2022-12-26T10:32:28.239Z,41.74
2022-12-26T10:34:55.527Z,46.73
2022-12-26T10:37:39.102Z,44.72
2022-12-26T10:40:11.952Z,44.80
2022-12-26T10:42:43.697Z,43.89
2022-12-26T10:45:45.180Z,43.47
2022-12-26T10:48:14.652Z,43.17
2022-12-26T10:50:48.227Z,43.11
2022-12-26T10:53:16.681Z,44.22
2022-12-26T10:55:43.714Z,43.21
2022-12-26T10:58:23.044Z,44.55
2022-12-26T11:00:49.879Z,44.77
2022-12-26T11:03:19.740Z,46.23
2022-12-26T11:06:08.128Z,48.16
2022-12-26T11:08:49.251Z,49.16
2022-12-26T11:11:46.053Z,50.49
2022-12-26T11:14:39.992Z,50.98
2022-12-26T11:17:23.988Z,51.60
2022-12-26T11:20:14.882Z,52.21
2022-12-26T11:22:42.915Z,52.70
2022-12-26T11:25:09.609Z,53.48
2022-12-26T11:27:39.256Z,53.50
2022-12-26T11:30:25.685Z,55.01
2022-12-26T11:33:17.865Z,55.50
2022-12-26T11:35:57.911Z,56.84
2022-12-26T11:38:44.136Z,56.76
2022-12-26T11:41:36.184Z,57.57
2022-12-26T11:44:24.357Z,58.92
2022-12-26T11:47:10.931Z,58.27
2022-12-26T11:50:03.059Z,57.78
2022-12-26T11:52:37.281Z,58.54
2022-12-26T11:55:22.883Z,58.52
2022-12-26T11:58:08.205Z,58.38
2022-12-26T12:00:44.104Z,59.43
2022-12-26T12:03:48.654Z,62.76
2022-12-26T12:06:32.734Z,64.45
2022-12-26T12:09:22.473Z,65.22
2022-12-26T12:12:00.982Z,66.89
2022-12-26T12:14:46.856Z,68.06
2022-12-26T12:18:02.816Z,69.59
2022-12-26T12:20:59.167Z,71.12
2022-12-26T12:23:53.229Z,71.45
2022-12-26T12:27:14.595Z,72.97
2022-12-26T12:30:03.350Z,73.94
2022-12-26T12:33:19.961Z,73.89
2022-12-26T12:36:04.552Z,74.45
2022-12-26T12:38:56.929Z,73.91
2022-12-26T12:41:58.012Z,74.63
2022-12-26T12:44:58.440Z,74.61
2022-12-26T12:47:53.155Z,74.45
2022-12-26T12:50:58.857Z,74.74
2022-12-26T12:53:55.441Z,74.69
2022-12-26T12:56:52.164Z,75.38
2022-12-26T12:59:29.063Z,75.50
2022-12-26T13:02:05.608Z,75.86
2022-12-26T13:04:46.102Z,76.11
2022-12-26T13:07:22.767Z,76.21
2022-12-26T13:10:19.621Z,75.90
2022-12-26T13:12:49.286Z,76.19
2022-12-26T13:15:19.032Z,76.83
2022-12-26T13:18:02.757Z,76.44
2022-12-26T13:20:54.046Z,76.64
2022-12-26T13:24:02.681Z,76.38
2022-12-26T13:26:39.077Z,77.09
2022-12-26T13:29:34.676Z,78.25
2022-12-26T13:32:07.237Z,77.77
2022-12-26T13:34:34.153Z,77.25
2022-12-26T13:37:01.164Z,77.02
2022-12-26T13:39:27.882Z,77.34
2022-12-26T13:42:18.533Z,77.78
2022-12-26T13:44:48.804Z,77.98
2022-12-26T13:47:37.231Z,78.03
2022-12-26T13:50:51.607Z,78.00
2022-12-26T13:53:24.604Z,78.40
2022-12-26T13:56:05.031Z,78.99
2022-12-26T13:59:07.385Z,79.30
2022-12-26T14:02:01.433Z,79.25
2022-12-26T14:05:00.431Z,80.00
2022-12-26T14:07:58.610Z,79.49
2022-12-26T14:10:43.299Z,78.90
2022-12-26T14:13:30.811Z,78.63
2022-12-26T14:16:05.231Z,78.74
2022-12-26T14:18:49.442Z,78.62
2022-12-26T14:21:36.696Z,78.17
2022-12-26T14:24:12.375Z,78.61
2022-12-26T14:27:21.937Z,78.66
2022-12-26T14:30:07.129Z,80.33
2022-12-26T14:33:21.560Z,79.54
2022-12-26T14:36:01.914Z,79.37
2022-12-26T14:39:06.121Z,80.25
2022-12-26T14:42:26.569Z,81.51
2022-12-26T14:44:59.190Z,80.08
2022-12-26T14:47:47.036Z,80.84
2022-12-26T14:50:32.389Z,81.83
2022-12-26T14:53:30.067Z,82.18
2022-12-26T14:56:15.981Z,82.25
2022-12-26T14:59:33.561Z,81.98
2022-12-26T15:02:10.199Z,81.75
2022-12-26T15:05:15.789Z,81.28
2022-12-26T15:08:14.346Z,80.69
2022-12-26T15:11:18.268Z,79.72
2022-12-26T15:14:19.049Z,80.48
2022-12-26T15:17:14.269Z,79.90
2022-12-26T15:20:02.572Z,79.55
2022-12-26T15:22:59.209Z,78.85
2022-12-26T15:25:53.790Z,79.25
2022-12-26T15:29:11.285Z,80.67
2022-12-26T15:32:24.555Z,80.81
2022-12-26T15:35:18.675Z,80.68
2022-12-26T15:38:19.122Z,81.34
2022-12-26T15:40:52.623Z,80.46
2022-12-26T15:43:49.560Z,80.30
2022-12-26T15:46:27.502Z,79.57
2022-12-26T15:49:21.107Z,79.03
2022-12-26T15:52:14.700Z,79.39
2022-12-26T15:55:06.145Z,78.92
2022-12-26T15:57:40.997Z,78.89
2022-12-26T16:00:23.358Z,79.59
2022-12-26T16:03:01.581Z,79.44
2022-12-26T16:05:48.075Z,79.77
2022-12-26T16:08:48.201Z,79.29
2022-12-26T16:11:21.864Z,79.59
2022-12-26T16:13:57.095Z,79.51
2022-12-26T16:16:37.357Z,79.80
2022-12-26T16:19:22.645Z,81.10
2022-12-26T16:22:16.765Z,80.36
2022-12-26T16:24:44.569Z,80.75
2022-12-26T16:27:18.677Z,79.89
2022-12-26T16:30:09.723Z,79.53
2022-12-26T16:32:42.253Z,79.51
2022-12-26T16:35:23.026Z,78.56
2022-12-26T16:37:51.282Z,77.93
2022-12-26T16:40:47.020Z,77.29
2022-12-26T16:43:34.587Z,78.25
2022-12-26T16:46:06.139Z,77.60
2022-12-26T16:48:35.741Z,77.29
2022-12-26T16:51:07.620Z,76.98
2022-12-26T16:53:37.058Z,77.27
2022-12-26T16:56:32.504Z,77.62
2022-12-26T16:59:18.111Z,77.99
2022-12-26T17:01:56.059Z,76.81
2022-12-26T17:04:29.176Z,76.63
2022-12-26T17:07:06.907Z,76.46
2022-12-26T17:09:45.302Z,76.76
2022-12-26T17:12:46.871Z,76.00
2022-12-26T17:15:23.887Z,75.92
2022-12-26T17:17:50.702Z,75.47
2022-12-26T17:20:23.273Z,75.63
2022-12-26T17:22:51.446Z,75.79
2022-12-26T17:25:20.310Z,76.08
2022-12-26T17:28:08.239Z,75.51
2022-12-26T17:30:41.891Z,75.45
2022-12-26T17:33:28.233Z,75.12
2022-12-26T17:37:08.287Z,75.08
2022-12-26T17:38:54.066Z,75.01
2022-12-26T17:41:20.885Z,75.14
2022-12-26T17:43:48.652Z,75.18
2022-12-26T17:46:17.835Z,74.90
2022-12-26T17:48:45.526Z,74.80
2022-12-26T17:51:16.507Z,75.42
2022-12-26T17:53:49.547Z,75.96
2022-12-26T17:56:21.048Z,76.07
2022-12-26T17:58:49.070Z,76.22
2022-12-26T18:01:21.014Z,75.35
2022-12-26T18:03:48.567Z,75.82
2022-12-26T18:06:16.564Z,75.79
2022-12-26T18:08:44.719Z,74.96
2022-12-26T18:11:13.664Z,75.36
2022-12-26T18:13:41.650Z,75.22
2022-12-26T18:16:16.138Z,75.59
2022-12-26T18:18:45.746Z,74.24
2022-12-26T18:21:15.128Z,75.36
2022-12-26T18:23:42.389Z,74.45
2022-12-26T18:26:25.190Z,74.02
2022-12-26T18:28:52.248Z,73.44
2022-12-26T18:31:19.500Z,74.70
2022-12-26T18:33:46.456Z,73.08
2022-12-26T18:36:15.618Z,73.99
2022-12-26T18:38:42.991Z,73.38
2022-12-26T18:41:15.953Z,73.28
2022-12-26T18:43:42.834Z,73.67
2022-12-26T18:46:26.434Z,73.25
2022-12-26T18:48:54.292Z,73.15
2022-12-26T18:51:21.481Z,72.56
2022-12-26T18:53:48.424Z,72.44
2022-12-26T18:56:19.056Z,72.31
2022-12-26T18:58:50.099Z,72.67
2022-12-26T19:01:21.027Z,72.97
2022-12-26T19:03:47.988Z,73.17
2022-12-26T19:06:27.015Z,72.18
2022-12-26T19:08:54.245Z,72.78
2022-12-26T19:11:21.151Z,72.56
2022-12-26T19:13:48.164Z,72.45
2022-12-26T19:16:15.370Z,71.99
2022-12-26T19:18:42.240Z,73.16
2022-12-26T19:21:13.937Z,72.44
2022-12-26T19:23:41.950Z,72.13
2022-12-26T19:26:11.424Z,71.97
2022-12-26T19:28:39.087Z,72.00
2022-12-26T19:31:13.869Z,71.18
2022-12-26T19:33:41.080Z,70.82
2022-12-26T19:36:09.041Z,71.45
2022-12-26T19:38:36.804Z,71.43
2022-12-26T19:41:14.408Z,71.54
2022-12-26T19:43:41.683Z,71.20
2022-12-26T19:46:12.230Z,71.34
2022-12-26T19:48:39.574Z,71.07
2022-12-26T19:51:11.391Z,71.11
2022-12-26T19:53:39.732Z,71.83
2022-12-26T19:56:18.312Z,71.56
2022-12-26T19:58:45.670Z,71.73
2022-12-26T20:01:17.058Z,70.94
2022-12-26T20:03:44.474Z,71.45
2022-12-26T20:06:14.789Z,70.47
2022-12-26T20:08:42.967Z,71.10
2022-12-26T20:11:16.842Z,70.55
2022-12-26T20:13:44.918Z,70.27
2022-12-26T20:16:45.723Z,70.93
2022-12-26T20:19:02.914Z,70.19
2022-12-26T20:21:29.742Z,70.33
2022-12-26T20:24:01.170Z,69.91
2022-12-26T20:26:29.164Z,70.01
2022-12-26T20:29:01.317Z,69.27
2022-12-26T20:31:32.861Z,69.46
2022-12-26T20:34:02.422Z,68.97
2022-12-26T20:36:33.392Z,68.99
2022-12-26T20:39:04.767Z,68.98
2022-12-26T20:41:31.830Z,69.02
2022-12-26T20:43:59.007Z,68.83
2022-12-26T20:46:29.601Z,68.92
2022-12-26T20:48:56.478Z,70.66
2022-12-26T20:51:36.470Z,71.23
2022-12-26T20:54:08.903Z,72.04
2022-12-26T20:56:36.538Z,73.56
2022-12-26T20:59:04.649Z,75.39
2022-12-26T21:01:31.656Z,76.68
2022-12-26T21:03:59.199Z,77.27
2022-12-26T21:06:33.945Z,77.06
2022-12-26T21:09:01.540Z,77.17
2022-12-26T21:11:36.034Z,76.74
2022-12-26T21:14:11.985Z,76.37
2022-12-26T21:16:55.046Z,75.47
2022-12-26T21:19:24.116Z,75.00
2022-12-26T21:21:53.650Z,75.14
2022-12-26T21:24:27.964Z,75.91
2022-12-26T21:26:55.812Z,75.70
2022-12-26T21:29:29.970Z,76.06
2022-12-26T21:31:58.654Z,75.56
2022-12-26T21:34:28.499Z,75.66
2022-12-26T21:37:15.683Z,76.26
2022-12-26T21:39:43.130Z,76.30
2022-12-26T21:42:10.915Z,77.31
2022-12-26T21:44:37.888Z,77.61
2022-12-26T21:47:07.289Z,77.67
2022-12-26T21:49:34.735Z,77.51
2022-12-26T21:52:01.556Z,76.99
2022-12-26T21:54:49.354Z,77.00
2022-12-26T21:57:17.252Z,77.99
2022-12-26T21:59:56.640Z,78.20
2022-12-26T22:02:55.187Z,77.33
2022-12-26T22:05:25.884Z,77.51
2022-12-26T22:07:56.422Z,77.51
2022-12-26T22:10:43.813Z,77.71
2022-12-26T22:13:10.929Z,77.84
2022-12-26T22:16:04.506Z,77.72
2022-12-26T22:18:45.952Z,78.07
2022-12-26T22:21:16.087Z,77.67
2022-12-26T22:23:43.821Z,78.55
2022-12-26T22:26:14.040Z,78.20
2022-12-26T22:28:42.279Z,77.60
2022-12-26T22:31:18.469Z,77.16
2022-12-26T22:33:45.269Z,77.31
2022-12-26T22:36:12.268Z,77.28
2022-12-26T22:38:39.248Z,77.45
2022-12-26T22:41:06.246Z,77.72
2022-12-26T22:43:33.342Z,78.01
2022-12-26T22:46:00.228Z,78.11
2022-12-26T22:48:27.510Z,77.76
2022-12-26T22:50:55.815Z,77.90
2022-12-26T22:53:27.658Z,78.01
2022-12-26T22:56:06.500Z,77.45
2022-12-26T22:58:34.346Z,77.25
2022-12-26T23:01:01.318Z,77.34
2022-12-26T23:03:28.427Z,77.46
2022-12-26T23:05:56.312Z,77.47
2022-12-26T23:08:27.624Z,77.43
2022-12-26T23:10:58.895Z,77.62
2022-12-26T23:13:26.109Z,77.85
2022-12-26T23:16:31.285Z,77.79
2022-12-26T23:19:21.642Z,77.48
2022-12-26T23:21:50.412Z,76.96
2022-12-26T23:24:23.197Z,77.33
2022-12-26T23:27:17.538Z,76.75
2022-12-26T23:30:03.105Z,76.92
2022-12-26T23:32:29.934Z,77.26
2022-12-26T23:34:56.677Z,77.43
2022-12-26T23:37:23.556Z,77.44
2022-12-26T23:39:50.335Z,77.80
2022-12-26T23:42:17.105Z,77.74
2022-12-26T23:44:43.892Z,77.93
2022-12-26T23:47:10.737Z,78.58
2022-12-26T23:49:37.593Z,79.19
2022-12-26T23:52:04.647Z,79.00
2022-12-26T23:54:31.415Z,79.17
2022-12-26T23:56:58.323Z,78.50
2022-12-26T23:59:25.402Z,78.53
